Time,TemperatureF,DewpointF,PressureIn,WindDirection,WindDirectionDegrees,WindSpeedMPH,WindSpeedGustMPH,Humidity,HourlyPrecipIn,Conditions,Clouds,dailyrainin,SoftwareType,DateUTC
2013-06-29 00:05:00,63.5,64.0,29.52,NNW,345,0.0,1.0,100,0.00,,,0.00,weatherlink.com 1.10,2013-06-29 04:05:00,
2013-06-29 00:21:00,63.6,64.0,29.51,NW,309,0.0,1.0,100,0.00,,,0.00,weatherlink.com 1.10,2013-06-29 04:21:00,
2013-06-29 00:37:00,63.9,64.0,29.51,West,270,0.0,2.0,100,0.00,,,0.00,weatherlink.com 1.10,2013-06-29 04:37:00,
2013-06-29 00:53:00,64.9,65.0,29.51,WNW,302,0.0,4.0,100,0.01,,,0.01,weatherlink.com 1.10,2013-06-29 04:53:00,
2013-06-29 01:10:00,65.3,65.0,29.50,West,278,0.0,3.0,100,0.03,,,0.03,weatherlink.com 1.10,2013-06-29 05:10:00,
2013-06-29 01:26:00,65.4,65.0,29.50,NNW,329,0.0,4.0,100,0.04,,,0.04,weatherlink.com 1.10,2013-06-29 05:26:00,
2013-06-29 01:42:00,65.6,65.0,29.50,West,268,2.0,3.0,99,0.04,,,0.04,weatherlink.com 1.10,2013-06-29 05:42:00,
2013-06-29 01:58:00,66.4,66.0,29.50,WNW,287,1.0,4.0,99,0.03,,,0.04,weatherlink.com 1.10,2013-06-29 05:58:00,
2013-06-29 02:15:00,66.3,65.0,29.50,NW,308,0.0,3.0,97,0.00,,,0.04,weatherlink.com 1.10,2013-06-29 06:15:00,
2013-06-29 02:31:00,65.5,65.0,29.49,WNW,290,0.0,1.0,98,0.00,,,0.04,weatherlink.com 1.10,2013-06-29 06:31:00,
2013-06-29 02:47:00,65.5,65.0,29.49,West,264,0.0,0.0,97,0.00,,,0.04,weatherlink.com 1.10,2013-06-29 06:47:00,
2013-06-29 03:05:00,64.6,64.0,29.49,West,275,0.0,0.0,98,0.00,,,0.04,weatherlink.com 1.10,2013-06-29 07:05:00,
2013-06-29 03:22:00,64.1,64.0,29.49,NW,320,0.0,0.0,99,0.00,,,0.04,weatherlink.com 1.10,2013-06-29 07:22:00,
2013-06-29 03:38:00,63.9,64.0,29.49,NW,320,0.0,0.0,100,0.00,,,0.04,weatherlink.com 1.10,2013-06-29 07:38:00,
2013-06-29 03:54:00,63.9,64.0,29.50,SW,228,0.0,0.0,100,0.00,,,0.04,weatherlink.com 1.10,2013-06-29 07:54:00,
2013-06-29 04:10:00,64.1,64.0,29.50,WNW,285,0.0,0.0,100,0.00,,,0.04,weatherlink.com 1.10,2013-06-29 08:10:00,
2013-06-29 04:27:00,64.2,64.0,29.50,WNW,285,0.0,0.0,100,0.00,,,0.04,weatherlink.com 1.10,2013-06-29 08:27:00,
2013-06-29 04:43:00,64.1,64.0,29.51,WNW,285,0.0,0.0,100,0.01,,,0.05,weatherlink.com 1.10,2013-06-29 08:43:00,
2013-06-29 04:59:00,64.4,64.0,29.50,WNW,294,0.0,0.0,100,0.03,,,0.07,weatherlink.com 1.10,2013-06-29 08:59:00,
2013-06-29 05:15:00,64.3,64.0,29.51,WNW,294,0.0,0.0,100,0.03,,,0.07,weatherlink.com 1.10,2013-06-29 09:15:00,
2013-06-29 05:31:00,64.7,65.0,29.52,WNW,303,0.0,0.0,100,0.03,,,0.07,weatherlink.com 1.10,2013-06-29 09:31:00,
2013-06-29 05:48:00,64.9,65.0,29.53,West,265,0.0,0.0,100,0.02,,,0.09,weatherlink.com 1.10,2013-06-29 09:48:00,
2013-06-29 06:04:00,65.9,66.0,29.53,WNW,289,0.0,3.0,100,0.03,,,0.10,weatherlink.com 1.10,2013-06-29 10:04:00,
2013-06-29 06:20:00,66.6,67.0,29.53,WSW,257,0.0,3.0,100,0.08,,,0.15,weatherlink.com 1.10,2013-06-29 10:20:00,
2013-06-29 06:36:00,66.1,65.0,29.53,West,272,0.0,1.0,97,0.08,,,0.15,weatherlink.com 1.10,2013-06-29 10:36:00,
2013-06-29 06:53:00,65.5,65.0,29.53,West,272,0.0,0.0,99,0.06,,,0.15,weatherlink.com 1.10,2013-06-29 10:53:00,
2013-06-29 07:09:00,66.1,66.0,29.53,West,273,0.0,0.0,100,0.02,,,0.15,weatherlink.com 1.10,2013-06-29 11:09:00,
2013-06-29 07:26:00,66.3,66.0,29.53,West,272,0.0,0.0,100,0.00,,,0.15,weatherlink.com 1.10,2013-06-29 11:26:00,
2013-06-29 07:42:00,67.1,67.0,29.54,WNW,294,0.0,0.0,99,0.00,,,0.15,weatherlink.com 1.10,2013-06-29 11:42:00,
2013-06-29 07:58:00,67.7,67.0,29.54,WNW,294,0.0,0.0,99,0.00,,,0.15,weatherlink.com 1.10,2013-06-29 11:58:00,
2013-06-29 08:15:00,68.7,68.0,29.54,NW,306,0.0,0.0,98,0.00,,,0.15,weatherlink.com 1.10,2013-06-29 12:15:00,
2013-06-29 08:31:00,70.1,69.0,29.54,NW,305,0.0,1.0,96,0.00,,,0.15,weatherlink.com 1.10,2013-06-29 12:31:00,
2013-06-29 08:47:00,70.7,68.0,29.54,WNW,299,0.0,5.0,92,0.00,,,0.15,weatherlink.com 1.10,2013-06-29 12:47:00,
2013-06-29 09:03:00,70.6,68.0,29.54,NW,308,0.0,3.0,92,0.00,,,0.15,weatherlink.com 1.10,2013-06-29 13:03:00,
2013-06-29 09:19:00,71.9,68.0,29.54,West,279,2.0,3.0,88,0.00,,,0.15,weatherlink.com 1.10,2013-06-29 13:19:00,
2013-06-29 09:36:00,72.7,68.0,29.53,West,267,0.0,7.0,86,0.00,,,0.15,weatherlink.com 1.10,2013-06-29 13:36:00,
2013-06-29 09:52:00,73.2,69.0,29.53,East,87,0.0,3.0,87,0.00,,,0.15,weatherlink.com 1.10,2013-06-29 13:52:00,
2013-06-29 10:08:00,73.2,68.0,29.54,NW,318,1.0,8.0,85,0.00,,,0.15,weatherlink.com 1.10,2013-06-29 14:08:00,
2013-06-29 10:24:00,73.3,68.0,29.55,West,265,0.0,5.0,84,0.00,,,0.15,weatherlink.com 1.10,2013-06-29 14:24:00,
2013-06-29 10:41:00,74.8,68.0,29.55,SW,224,4.0,7.0,80,0.00,,,0.15,weatherlink.com 1.10,2013-06-29 14:41:00,
2013-06-29 10:57:00,75.1,68.0,29.54,WNW,286,1.0,5.0,79,0.00,,,0.15,weatherlink.com 1.10,2013-06-29 14:57:00,
2013-06-29 11:13:00,75.1,67.0,29.54,SW,233,5.0,6.0,76,0.00,,,0.15,weatherlink.com 1.10,2013-06-29 15:13:00,
2013-06-29 11:29:00,75.2,67.0,29.54,WSW,243,3.0,4.0,77,0.00,,,0.15,weatherlink.com 1.10,2013-06-29 15:29:00,
2013-06-29 11:45:00,76.0,67.0,29.55,WSW,255,2.0,6.0,74,0.00,,,0.15,weatherlink.com 1.10,2013-06-29 15:45:00,
2013-06-29 12:02:00,76.0,67.0,29.54,WSW,252,3.0,7.0,74,0.00,,,0.15,weatherlink.com 1.10,2013-06-29 16:02:00,
2013-06-29 12:18:00,76.8,66.0,29.54,SW,218,10.0,12.0,69,0.00,,,0.15,weatherlink.com 1.10,2013-06-29 16:18:00,
2013-06-29 12:34:00,77.8,67.0,29.54,WSW,255,6.0,9.0,69,0.00,,,0.15,weatherlink.com 1.10,2013-06-29 16:34:00,
2013-06-29 12:50:00,78.3,66.0,29.54,West,262,1.0,7.0,67,0.00,,,0.15,weatherlink.com 1.10,2013-06-29 16:50:00,
2013-06-29 13:07:00,78.4,67.0,29.54,WNW,284,0.0,4.0,67,0.00,,,0.15,weatherlink.com 1.10,2013-06-29 17:07:00,
2013-06-29 13:23:00,78.6,66.0,29.53,WSW,249,2.0,12.0,66,0.00,,,0.15,weatherlink.com 1.10,2013-06-29 17:23:00,
2013-06-29 13:39:00,79.3,67.0,29.53,NW,315,1.0,10.0,65,0.00,,,0.15,weatherlink.com 1.10,2013-06-29 17:39:00,
2013-06-29 13:55:00,79.2,65.0,29.53,NW,318,0.0,10.0,62,0.00,,,0.15,weatherlink.com 1.10,2013-06-29 17:55:00,
2013-06-29 14:12:00,80.3,65.0,29.53,SW,216,7.0,10.0,59,0.00,,,0.15,weatherlink.com 1.10,2013-06-29 18:12:00,
2013-06-29 14:28:00,80.1,65.0,29.53,West,275,0.0,13.0,60,0.00,,,0.15,weatherlink.com 1.10,2013-06-29 18:28:00,
2013-06-29 14:44:00,81.7,67.0,29.53,WNW,287,2.0,8.0,62,0.00,,,0.15,weatherlink.com 1.10,2013-06-29 18:44:00,
2013-06-29 15:00:00,81.0,66.0,29.54,SW,233,6.0,9.0,60,0.00,,,0.15,weatherlink.com 1.10,2013-06-29 19:00:00,
2013-06-29 15:16:00,81.4,65.0,29.53,West,260,3.0,9.0,58,0.00,,,0.15,weatherlink.com 1.10,2013-06-29 19:16:00,
2013-06-29 15:33:00,81.4,68.0,29.53,West,260,1.0,11.0,64,0.00,,,0.15,weatherlink.com 1.10,2013-06-29 19:33:00,
2013-06-29 15:49:00,81.0,65.0,29.53,West,259,2.0,11.0,58,0.00,,,0.15,weatherlink.com 1.10,2013-06-29 19:49:00,
2013-06-29 16:05:00,82.8,66.0,29.53,West,269,1.0,8.0,57,0.00,,,0.15,weatherlink.com 1.10,2013-06-29 20:05:00,
2013-06-29 16:21:00,81.6,66.0,29.54,WSW,249,7.0,10.0,60,0.00,,,0.15,weatherlink.com 1.10,2013-06-29 20:21:00,
2013-06-29 16:38:00,80.5,67.0,29.54,NW,323,1.0,11.0,64,0.00,,,0.15,weatherlink.com 1.10,2013-06-29 20:38:00,
2013-06-29 16:54:00,81.5,67.0,29.54,West,273,1.0,11.0,61,0.00,,,0.15,weatherlink.com 1.10,2013-06-29 20:54:00,
2013-06-29 17:10:00,79.2,65.0,29.55,WSW,256,1.0,10.0,62,0.00,,,0.15,weatherlink.com 1.10,2013-06-29 21:10:00,
2013-06-29 17:26:00,79.2,66.0,29.55,West,263,0.0,5.0,65,0.00,,,0.15,weatherlink.com 1.10,2013-06-29 21:26:00,
2013-06-29 17:43:00,79.1,66.0,29.56,WSW,239,3.0,8.0,65,0.00,,,0.15,weatherlink.com 1.10,2013-06-29 21:43:00,
2013-06-29 18:00:00,80.5,64.0,29.56,WSW,237,2.0,7.0,58,0.00,,,0.15,weatherlink.com 1.10,2013-06-29 22:00:00,
2013-06-29 18:16:00,78.8,66.0,29.56,West,260,1.0,12.0,64,0.00,,,0.15,weatherlink.com 1.10,2013-06-29 22:16:00,
2013-06-29 18:32:00,77.9,66.0,29.56,SW,220,1.0,6.0,67,0.00,,,0.15,weatherlink.com 1.10,2013-06-29 22:32:00,
2013-06-29 18:49:00,72.9,66.0,29.57,WSW,258,0.0,8.0,80,0.01,,,0.16,weatherlink.com 1.10,2013-06-29 22:49:00,
2013-06-29 19:05:00,72.9,67.0,29.57,West,277,0.0,9.0,82,0.01,,,0.16,weatherlink.com 1.10,2013-06-29 23:05:00,
2013-06-29 19:22:00,74.0,68.0,29.58,West,270,0.0,11.0,81,0.01,,,0.16,weatherlink.com 1.10,2013-06-29 23:22:00,
2013-06-29 19:38:00,73.8,68.0,29.59,West,275,0.0,6.0,81,0.01,,,0.16,weatherlink.com 1.10,2013-06-29 23:38:00,
2013-06-29 19:54:00,72.8,67.0,29.59,West,263,0.0,0.0,83,0.00,,,0.16,weatherlink.com 1.10,2013-06-29 23:54:00,
2013-06-29 20:11:00,71.1,67.0,29.59,WSW,241,8.0,8.0,88,0.20,,,0.36,weatherlink.com 1.10,2013-06-30 00:11:00,
2013-06-29 20:27:00,68.9,66.0,29.61,WNW,284,1.0,5.0,90,0.27,,,0.43,weatherlink.com 1.10,2013-06-30 00:27:00,
2013-06-29 20:43:00,67.9,65.0,29.61,West,266,0.0,2.0,92,0.28,,,0.44,weatherlink.com 1.10,2013-06-30 00:43:00,
2013-06-29 20:59:00,67.3,65.0,29.62,NW,316,0.0,1.0,93,0.28,,,0.44,weatherlink.com 1.10,2013-06-30 00:59:00,
2013-06-29 21:15:00,66.6,65.0,29.62,NW,317,0.0,1.0,94,0.04,,,0.44,weatherlink.com 1.10,2013-06-30 01:15:00,
2013-06-29 21:32:00,67.5,66.0,29.63,WSW,249,0.0,4.0,96,0.00,,,0.44,weatherlink.com 1.10,2013-06-30 01:32:00,
2013-06-29 21:48:00,69.0,68.0,29.64,WSW,255,0.0,4.0,95,0.00,,,0.44,weatherlink.com 1.10,2013-06-30 01:48:00,
2013-06-29 22:04:00,67.1,65.0,29.65,WNW,302,0.0,0.0,94,0.00,,,0.44,weatherlink.com 1.10,2013-06-30 02:04:00,
2013-06-29 22:20:00,66.5,66.0,29.65,WNW,302,0.0,1.0,97,0.00,,,0.44,weatherlink.com 1.10,2013-06-30 02:20:00,
2013-06-29 22:37:00,67.5,67.0,29.65,NW,305,0.0,3.0,98,0.00,,,0.44,weatherlink.com 1.10,2013-06-30 02:37:00,
2013-06-29 22:53:00,67.1,66.0,29.65,NNW,343,0.0,2.0,97,0.00,,,0.44,weatherlink.com 1.10,2013-06-30 02:53:00,
2013-06-29 23:09:00,67.5,67.0,29.66,SW,234,0.0,4.0,98,0.00,,,0.44,weatherlink.com 1.10,2013-06-30 03:09:00,
2013-06-29 23:25:00,68.2,68.0,29.66,WSW,249,2.0,8.0,98,0.00,,,0.44,weatherlink.com 1.10,2013-06-30 03:25:00,
2013-06-29 23:42:00,68.3,67.0,29.66,WSW,258,2.0,4.0,96,0.00,,,0.44,weatherlink.com 1.10,2013-06-30 03:42:00,
2013-06-29 23:58:00,68.5,67.0,29.66,WSW,249,3.0,7.0,95,0.00,,,0.44,weatherlink.com 1.10,2013-06-30 03:58:00,